sensor_id;sensor_type;location;lat;lon;timestamp;pressure;altitude;pressure_sealevel;temperature;humidity
5879;BME280;2965;42.640;23.370;2024-01-16T11:35:37;94131.53;;;4.84;98.48
5879;BME280;2965;42.640;23.370;2024-01-16T11:38:06;94129.28;;;4.89;99.24
5879;BME280;2965;42.640;23.370;2024-01-16T11:40:33;94128.34;;;4.98;100.00
5879;BME280;2965;42.640;23.370;2024-01-16T11:43:40;94133.59;;;4.72;100.00
5879;BME280;2965;42.640;23.370;2024-01-16T11:46:06;94135.59;;;4.44;100.00
5879;BME280;2965;42.640;23.370;2024-01-16T11:48:33;94131.63;;;4.58;100.00
5879;BME280;2965;42.640;23.370;2024-01-16T11:50:58;94126.25;;;4.59;100.00
5879;BME280;2965;42.640;23.370;2024-01-16T12:01:35;94144.16;;;4.10;100.00
5879;BME280;2965;42.640;23.370;2024-01-16T12:04:05;94153.59;;;4.19;100.00
5879;BME280;2965;42.640;23.370;2024-01-16T12:06:31;94146.00;;;4.18;100.00
5879;BME280;2965;42.640;23.370;2024-01-16T12:09:16;94159.09;;;4.16;100.00
5879;BME280;2965;42.640;23.370;2024-01-16T12:11:56;94164.22;;;4.08;100.00
5879;BME280;2965;42.640;23.370;2024-01-16T12:14:22;94167.66;;;3.91;100.00
5879;BME280;2965;42.640;23.370;2024-01-16T12:16:48;94176.75;;;3.95;100.00
5879;BME280;2965;42.640;23.370;2024-01-16T12:19:13;94178.72;;;4.01;100.00
5879;BME280;2965;42.640;23.370;2024-01-16T12:21:43;94175.22;;;4.10;100.00
5879;BME280;2965;42.640;23.370;2024-01-16T12:24:12;94167.50;;;3.92;100.00
5879;BME280;2965;42.640;23.370;2024-01-16T12:26:38;94175.56;;;3.71;100.00
5879;BME280;2965;42.640;23.370;2024-01-16T12:29:07;94172.69;;;3.74;100.00
5879;BME280;2965;42.640;23.370;2024-01-16T12:31:32;94182.47;;;3.63;100.00
5879;BME280;2965;42.640;23.370;2024-01-16T12:34:24;94185.66;;;3.39;100.00
5879;BME280;2965;42.640;23.370;2024-01-16T12:37:04;94188.44;;;3.27;100.00
5879;BME280;2965;42.640;23.370;2024-01-16T12:39:30;94176.78;;;3.23;100.00
5879;BME280;2965;42.640;23.370;2024-01-16T12:41:56;94182.41;;;3.37;100.00
5879;BME280;2965;42.640;23.370;2024-01-16T12:44:27;94187.28;;;3.40;100.00
5879;BME280;2965;42.640;23.370;2024-01-16T12:46:56;94197.84;;;3.28;100.00
5879;BME280;2965;42.640;23.370;2024-01-16T12:49:23;94199.91;;;3.25;100.00
5879;BME280;2965;42.640;23.370;2024-01-16T12:51:49;94206.94;;;3.33;100.00
5879;BME280;2965;42.640;23.370;2024-01-16T12:54:17;94203.03;;;3.46;100.00
5879;BME280;2965;42.640;23.370;2024-01-16T12:56:44;94207.69;;;3.43;100.00
5879;BME280;2965;42.640;23.370;2024-01-16T12:59:13;94196.16;;;3.37;100.00
5879;BME280;2965;42.640;23.370;2024-01-16T13:01:41;94188.47;;;3.63;100.00
5879;BME280;2965;42.640;23.370;2024-01-16T13:04:11;94191.06;;;3.89;100.00
5879;BME280;2965;42.640;23.370;2024-01-16T13:06:37;94201.09;;;4.10;100.00
5879;BME280;2965;42.640;23.370;2024-01-16T13:09:10;94190.75;;;4.10;100.00
5879;BME280;2965;42.640;23.370;2024-01-16T13:14:12;94197.97;;;4.24;100.00
5879;BME280;2965;42.640;23.370;2024-01-16T13:16:37;94203.94;;;3.99;100.00
5879;BME280;2965;42.640;23.370;2024-01-16T13:19:03;94209.31;;;4.05;100.00
5879;BME280;2965;42.640;23.370;2024-01-16T13:21:30;94213.41;;;4.08;100.00
5879;BME280;2965;42.640;23.370;2024-01-16T13:23:56;94214.47;;;3.79;100.00
5879;BME280;2965;42.640;23.370;2024-01-16T13:26:21;94214.34;;;3.63;100.00
5879;BME280;2965;42.640;23.370;2024-01-16T13:28:47;94221.56;;;3.77;100.00
5879;BME280;2965;42.640;23.370;2024-01-16T13:31:13;94213.72;;;3.69;100.00
5879;BME280;2965;42.640;23.370;2024-01-16T13:33:38;94209.53;;;3.68;100.00
5879;BME280;2965;42.640;23.370;2024-01-16T13:36:04;94209.94;;;3.99;100.00
5879;BME280;2965;42.640;23.370;2024-01-16T13:38:30;94214.56;;;4.40;100.00
5879;BME280;2965;42.640;23.370;2024-01-16T13:40:55;94221.66;;;4.38;100.00
5879;BME280;2965;42.640;23.370;2024-01-16T13:43:21;94218.06;;;4.04;100.00
5879;BME280;2965;42.640;23.370;2024-01-16T13:45:46;94222.66;;;3.93;100.00
5879;BME280;2965;42.640;23.370;2024-01-16T13:48:15;94225.13;;;3.76;100.00
5879;BME280;2965;42.640;23.370;2024-01-16T13:50:42;94231.84;;;3.87;100.00
5879;BME280;2965;42.640;23.370;2024-01-16T13:53:07;94234.63;;;3.76;100.00
5879;BME280;2965;42.640;23.370;2024-01-16T13:55:33;94225.78;;;3.78;100.00
5879;BME280;2965;42.640;23.370;2024-01-16T13:57:58;94232.22;;;3.74;100.00
5879;BME280;2965;42.640;23.370;2024-01-16T14:00:24;94228.16;;;3.72;100.00
5879;BME280;2965;42.640;23.370;2024-01-16T14:02:49;94230.66;;;3.82;100.00
5879;BME280;2965;42.640;23.370;2024-01-16T14:05:17;94230.59;;;3.73;100.00
5879;BME280;2965;42.640;23.370;2024-01-16T14:07:50;94235.59;;;3.57;100.00
5879;BME280;2965;42.640;23.370;2024-01-16T14:10:16;94235.75;;;3.38;100.00
5879;BME280;2965;42.640;23.370;2024-01-16T14:12:44;94246.09;;;3.38;100.00
5879;BME280;2965;42.640;23.370;2024-01-16T14:15:14;94239.59;;;3.34;100.00
5879;BME280;2965;42.640;23.370;2024-01-16T14:17:54;94246.78;;;3.12;100.00
5879;BME280;2965;42.640;23.370;2024-01-16T14:20:20;94239.78;;;2.95;100.00
5879;BME280;2965;42.640;23.370;2024-01-16T14:22:49;94259.75;;;2.75;100.00
5879;BME280;2965;42.640;23.370;2024-01-16T14:25:15;94263.31;;;2.64;100.00
5879;BME280;2965;42.640;23.370;2024-01-16T14:28:05;94273.31;;;2.77;100.00
5879;BME280;2965;42.640;23.370;2024-01-16T14:30:34;94276.59;;;2.69;100.00
5879;BME280;2965;42.640;23.370;2024-01-16T14:33:00;94276.78;;;2.58;100.00
5879;BME280;2965;42.640;23.370;2024-01-16T14:35:26;94275.81;;;2.59;100.00
5879;BME280;2965;42.640;23.370;2024-01-16T14:37:52;94264.84;;;2.57;100.00
5879;BME280;2965;42.640;23.370;2024-01-16T14:40:18;94269.88;;;2.49;100.00
5879;BME280;2965;42.640;23.370;2024-01-16T14:42:54;94271.22;;;2.43;100.00
5879;BME280;2965;42.640;23.370;2024-01-16T14:45:21;94268.25;;;2.48;100.00
5879;BME280;2965;42.640;23.370;2024-01-16T14:47:47;94270.41;;;2.52;100.00
5879;BME280;2965;42.640;23.370;2024-01-16T14:50:14;94269.88;;;2.49;100.00
5879;BME280;2965;42.640;23.370;2024-01-16T14:52:41;94279.81;;;2.44;100.00
5879;BME280;2965;42.640;23.370;2024-01-16T14:55:07;94279.66;;;2.45;100.00
5879;BME280;2965;42.640;23.370;2024-01-16T14:57:33;94285.53;;;2.38;100.00
5879;BME280;2965;42.640;23.370;2024-01-16T15:00:10;94284.59;;;2.29;100.00
5879;BME280;2965;42.640;23.370;2024-01-16T15:02:49;94291.91;;;2.34;100.00
5879;BME280;2965;42.640;23.370;2024-01-16T15:05:18;94291.09;;;2.33;100.00
5879;BME280;2965;42.640;23.370;2024-01-16T15:07:44;94309.97;;;2.34;100.00
5879;BME280;2965;42.640;23.370;2024-01-16T15:10:11;94309.97;;;2.34;100.00
5879;BME280;2965;42.640;23.370;2024-01-16T15:12:39;94317.47;;;2.37;100.00
5879;BME280;2965;42.640;23.370;2024-01-16T15:15:09;94323.16;;;2.50;100.00
5879;BME280;2965;42.640;23.370;2024-01-16T15:17:36;94319.84;;;2.67;100.00
5879;BME280;2965;42.640;23.370;2024-01-16T15:20:02;94325.28;;;2.64;100.00
5879;BME280;2965;42.640;23.370;2024-01-16T15:22:29;94314.84;;;2.56;100.00
5879;BME280;2965;42.640;23.370;2024-01-16T15:24:57;94317.72;;;2.53;100.00
5879;BME280;2965;42.640;23.370;2024-01-16T15:27:22;94313.91;;;2.57;100.00
5879;BME280;2965;42.640;23.370;2024-01-16T15:29:48;94312.50;;;2.72;100.00
5879;BME280;2965;42.640;23.370;2024-01-16T15:32:14;94311.38;;;2.85;100.00
5879;BME280;2965;42.640;23.370;2024-01-16T15:34:39;94322.25;;;2.78;100.00
5879;BME280;2965;42.640;23.370;2024-01-16T15:37:06;94325.59;;;2.61;100.00
5879;BME280;2965;42.640;23.370;2024-01-16T15:39:31;94330.63;;;2.34;100.00
5879;BME280;2965;42.640;23.370;2024-01-16T15:41:56;94325.22;;;2.17;100.00
5879;BME280;2965;42.640;23.370;2024-01-16T15:44:22;94336.78;;;2.13;100.00
5879;BME280;2965;42.640;23.370;2024-01-16T15:46:58;94350.75;;;2.40;100.00
5879;BME280;2965;42.640;23.370;2024-01-16T15:49:30;94347.75;;;2.54;100.00
5879;BME280;2965;42.640;23.370;2024-01-16T15:51:57;94351.94;;;2.65;100.00
5879;BME280;2965;42.640;23.370;2024-01-16T15:54:24;94351.13;;;2.64;100.00
5879;BME280;2965;42.640;23.370;2024-01-16T15:56:52;94356.56;;;2.71;100.00
5879;BME280;2965;42.640;23.370;2024-01-16T15:59:18;94355.38;;;2.36;100.00
5879;BME280;2965;42.640;23.370;2024-01-16T16:01:43;94343.97;;;2.10;100.00
5879;BME280;2965;42.640;23.370;2024-01-16T16:04:09;94353.88;;;2.14;100.00
5879;BME280;2965;42.640;23.370;2024-01-16T16:06:39;94356.31;;;1.87;100.00
5879;BME280;2965;42.640;23.370;2024-01-16T16:09:06;94355.22;;;1.80;100.00
5879;BME280;2965;42.640;23.370;2024-01-16T16:11:40;94353.44;;;1.70;100.00
5879;BME280;2965;42.640;23.370;2024-01-16T16:14:12;94349.50;;;1.66;100.00
5879;BME280;2965;42.640;23.370;2024-01-16T16:16:37;94350.19;;;1.68;100.00
5879;BME280;2965;42.640;23.370;2024-01-16T16:19:03;94353.53;;;1.59;100.00
5879;BME280;2965;42.640;23.370;2024-01-16T16:21:32;94352.19;;;1.55;100.00
5879;BME280;2965;42.640;23.370;2024-01-16T16:23:57;94355.44;;;1.57;100.00
5879;BME280;2965;42.640;23.370;2024-01-16T16:26:33;94359.00;;;1.66;100.00
5879;BME280;2965;42.640;23.370;2024-01-16T16:29:12;94359.41;;;1.61;100.00
5879;BME280;2965;42.640;23.370;2024-01-16T16:31:39;94357.94;;;1.68;100.00
5879;BME280;2965;42.640;23.370;2024-01-16T16:34:09;94355.22;;;1.80;100.00
5879;BME280;2965;42.640;23.370;2024-01-16T16:36:37;94358.22;;;1.94;100.00
5879;BME280;2965;42.640;23.370;2024-01-16T16:39:03;94359.31;;;2.01;100.00
5879;BME280;2965;42.640;23.370;2024-01-16T16:41:30;94365.03;;;2.05;100.00
5879;BME280;2965;42.640;23.370;2024-01-16T16:43:56;94356.31;;;2.06;100.00
5879;BME280;2965;42.640;23.370;2024-01-16T16:46:24;94359.88;;;2.05;100.00
5879;BME280;2965;42.640;23.370;2024-01-16T16:48:52;94366.09;;;2.12;100.00
5879;BME280;2965;42.640;23.370;2024-01-16T16:51:19;94367.47;;;2.16;100.00
5879;BME280;2965;42.640;23.370;2024-01-16T16:53:46;94361.47;;;2.16;100.00
5879;BME280;2965;42.640;23.370;2024-01-16T16:56:16;94367.19;;;2.19;100.00
5879;BME280;2965;42.640;23.370;2024-01-16T16:58:45;94360.41;;;2.18;100.00
5879;BME280;2965;42.640;23.370;2024-01-16T17:01:11;94368.00;;;2.30;100.00
5879;BME280;2965;42.640;23.370;2024-01-16T17:03:38;94377.78;;;2.36;100.00
5879;BME280;2965;42.640;23.370;2024-01-16T17:06:05;94372.91;;;2.33;100.00
5879;BME280;2965;42.640;23.370;2024-01-16T17:08:31;94371.81;;;2.35;100.00
5879;BME280;2965;42.640;23.370;2024-01-16T17:10:57;94373.97;;;2.30;100.00
5879;BME280;2965;42.640;23.370;2024-01-16T17:13:25;94361.22;;;2.28;100.00
5879;BME280;2965;42.640;23.370;2024-01-16T17:15:51;94367.47;;;2.16;100.00
5879;BME280;2965;42.640;23.370;2024-01-16T17:18:17;94367.75;;;2.13;100.00
5879;BME280;2965;42.640;23.370;2024-01-16T17:20:43;94376.41;;;2.02;100.00
5879;BME280;2965;42.640;23.370;2024-01-16T17:23:09;94374.78;;;1.92;100.00
5879;BME280;2965;42.640;23.370;2024-01-16T17:25:34;94374.66;;;1.93;100.00
5879;BME280;2965;42.640;23.370;2024-01-16T17:28:00;94383.91;;;1.96;100.00
5879;BME280;2965;42.640;23.370;2024-01-16T17:30:25;94380.50;;;1.95;100.00
5879;BME280;2965;42.640;23.370;2024-01-16T17:32:50;94372.63;;;1.97;100.00
5879;BME280;2965;42.640;23.370;2024-01-16T17:35:16;94380.75;;;1.92;100.00
5879;BME280;2965;42.640;23.370;2024-01-16T17:37:44;94377.78;;;1.97;100.00
5879;BME280;2965;42.640;23.370;2024-01-16T17:40:10;94379.81;;;2.03;100.00
5879;BME280;2965;42.640;23.370;2024-01-16T17:42:41;94384.31;;;1.91;100.00
5879;BME280;2965;42.640;23.370;2024-01-16T17:45:08;94380.22;;;1.89;100.00
5879;BME280;2965;42.640;23.370;2024-01-16T17:47:37;94381.84;;;1.90;100.00
5879;BME280;2965;42.640;23.370;2024-01-16T17:50:03;94385.38;;;1.89;100.00
5879;BME280;2965;42.640;23.370;2024-01-16T17:52:31;94378.59;;;1.88;100.00
5879;BME280;2965;42.640;23.370;2024-01-16T17:54:59;94380.84;;;1.71;100.00
5879;BME280;2965;42.640;23.370;2024-01-16T17:57:26;94386.31;;;1.78;100.00
5879;BME280;2965;42.640;23.370;2024-01-16T17:59:51;94390.50;;;1.69;100.00
5879;BME280;2965;42.640;23.370;2024-01-16T18:02:17;94387.22;;;1.67;100.00
5879;BME280;2965;42.640;23.370;2024-01-16T18:04:43;94399.97;;;1.59;100.00
5879;BME280;2965;42.640;23.370;2024-01-16T18:07:08;94400.22;;;1.46;100.00
5879;BME280;2965;42.640;23.370;2024-01-16T18:09:34;94404.28;;;1.49;100.00
5879;BME280;2965;42.640;23.370;2024-01-16T18:12:00;94406.84;;;1.49;100.00
5879;BME280;2965;42.640;23.370;2024-01-16T18:14:27;94398.44;;;1.47;100.00
5879;BME280;2965;42.640;23.370;2024-01-16T18:16:56;94404.53;;;1.46;100.00
5879;BME280;2965;42.640;23.370;2024-01-16T18:19:22;94398.94;;;1.41;100.00
5879;BME280;2965;42.640;23.370;2024-01-16T18:21:48;94399.31;;;1.26;100.00
5879;BME280;2965;42.640;23.370;2024-01-16T18:24:14;94398.47;;;1.16;100.00
5879;BME280;2965;42.640;23.370;2024-01-16T18:26:42;94399.56;;;1.23;100.00
5879;BME280;2965;42.640;23.370;2024-01-16T18:29:14;94403.09;;;1.22;100.00
5879;BME280;2965;42.640;23.370;2024-01-16T18:31:39;94394.25;;;1.15;100.00
5879;BME280;2965;42.640;23.370;2024-01-16T18:34:06;94385.59;;;1.16;100.00
5879;BME280;2965;42.640;23.370;2024-01-16T18:36:34;94387.13;;;1.29;100.00
5879;BME280;2965;42.640;23.370;2024-01-16T18:39:00;94393.91;;;1.30;100.00
5879;BME280;2965;42.640;23.370;2024-01-16T18:41:25;94389.00;;;1.26;100.00
5879;BME280;2965;42.640;23.370;2024-01-16T18:43:51;94388.47;;;1.33;100.00
5879;BME280;2965;42.640;23.370;2024-01-16T18:46:18;94387.97;;;1.39;100.00
5879;BME280;2965;42.640;23.370;2024-01-16T18:48:44;94394.50;;;1.43;100.00
5879;BME280;2965;42.640;23.370;2024-01-16T18:51:10;94400.59;;;1.42;100.00
5879;BME280;2965;42.640;23.370;2024-01-16T18:53:37;94412.63;;;1.32;100.00
5879;BME280;2965;42.640;23.370;2024-01-16T18:56:03;94408.81;;;1.26;100.00
5879;BME280;2965;42.640;23.370;2024-01-16T18:58:31;94415.13;;;1.12;100.00
5879;BME280;2965;42.640;23.370;2024-01-16T19:00:57;94420.34;;;1.01;100.00
5879;BME280;2965;42.640;23.370;2024-01-16T19:03:25;94427.41;;;0.99;100.00
5879;BME280;2965;42.640;23.370;2024-01-16T19:05:51;94421.38;;;0.89;100.00
5879;BME280;2965;42.640;23.370;2024-01-16T19:08:21;94426.34;;;0.81;100.00
5879;BME280;2965;42.640;23.370;2024-01-16T19:10:52;94433.44;;;0.67;100.00
5879;BME280;2965;42.640;23.370;2024-01-16T19:13:21;94429.47;;;0.63;100.00
5879;BME280;2965;42.640;23.370;2024-01-16T19:15:48;94429.22;;;0.66;100.00
5879;BME280;2965;42.640;23.370;2024-01-16T19:18:15;94427.97;;;0.61;100.00
5879;BME280;2965;42.640;23.370;2024-01-16T19:20:40;94422.50;;;0.54;100.00
5879;BME280;2965;42.640;23.370;2024-01-16T19:23:06;94422.25;;;0.57;100.00
5879;BME280;2965;42.640;23.370;2024-01-16T19:25:32;94419.72;;;0.46;100.00
5879;BME280;2965;42.640;23.370;2024-01-16T19:27:57;94426.28;;;0.50;100.00
5879;BME280;2965;42.640;23.370;2024-01-16T19:30:23;94417.84;;;0.48;100.00
5879;BME280;2965;42.640;23.370;2024-01-16T19:32:49;94421.06;;;0.40;100.00
5879;BME280;2965;42.640;23.370;2024-01-16T19:35:14;94417.94;;;0.25;100.00
5879;BME280;2965;42.640;23.370;2024-01-16T19:37:40;94415.91;;;0.08;100.00
5879;BME280;2965;42.640;23.370;2024-01-16T19:40:06;94422.47;;;0.01;100.00
5879;BME280;2965;42.640;23.370;2024-01-16T19:42:42;94422.44;;;0.12;100.00
5879;BME280;2965;42.640;23.370;2024-01-16T19:45:09;94419.19;;;0.10;100.00
5879;BME280;2965;42.640;23.370;2024-01-16T19:47:42;94416.84;;;0.07;100.00
5879;BME280;2965;42.640;23.370;2024-01-16T19:50:08;94416.16;;;0.05;100.00
5879;BME280;2965;42.640;23.370;2024-01-16T19:52:46;94423.16;;;0.03;100.00
5879;BME280;2965;42.640;23.370;2024-01-16T19:55:15;94416.97;;;0.06;100.00
5879;BME280;2965;42.640;23.370;2024-01-16T19:57:40;94424.19;;;0.12;100.00
5879;BME280;2965;42.640;23.370;2024-01-16T20:00:07;94428.88;;;0.07;100.00
5879;BME280;2965;42.640;23.370;2024-01-16T20:02:36;94436.47;;;0.08;100.00
5879;BME280;2965;42.640;23.370;2024-01-16T20:05:02;94435.09;;;0.04;100.00
5879;BME280;2965;42.640;23.370;2024-01-16T20:07:28;94426.19;;;0.08;100.00
5879;BME280;2965;42.640;23.370;2024-01-16T20:09:54;94422.69;;;0.09;100.00
5879;BME280;2965;42.640;23.370;2024-01-16T20:12:20;94430.19;;;0.01;100.00
5879;BME280;2965;42.640;23.370;2024-01-16T20:14:47;94432.16;;;0.09;100.00
5879;BME280;2965;42.640;23.370;2024-01-16T20:17:12;94426.91;;;0.10;100.00
5879;BME280;2965;42.640;23.370;2024-01-16T20:19:40;94437.47;;;-0.04;100.00
5879;BME280;2965;42.640;23.370;2024-01-16T20:22:06;94449.97;;;0.01;100.00
5879;BME280;2965;42.640;23.370;2024-01-16T20:24:32;94444.75;;;-0.32;100.00
5879;BME280;2965;42.640;23.370;2024-01-16T20:26:59;94461.13;;;-0.21;100.00
5879;BME280;2965;42.640;23.370;2024-01-16T20:29:25;94452.22;;;-0.17;100.00
5879;BME280;2965;42.640;23.370;2024-01-16T20:31:51;94456.19;;;-0.24;100.00
5879;BME280;2965;42.640;23.370;2024-01-16T20:34:17;94459.94;;;-0.29;100.00
5879;BME280;2965;42.640;23.370;2024-01-16T20:36:42;94451.28;;;-0.28;100.00
5879;BME280;2965;42.640;23.370;2024-01-16T20:39:09;94452.09;;;-0.27;100.00
5879;BME280;2965;42.640;23.370;2024-01-16T20:41:37;94462.28;;;-0.37;100.00
5879;BME280;2965;42.640;23.370;2024-01-16T20:44:03;94463.91;;;-0.24;100.00
5879;BME280;2965;42.640;23.370;2024-01-16T20:46:28;94457.81;;;-0.23;100.00
5879;BME280;2965;42.640;23.370;2024-01-16T20:48:54;94466.81;;;-0.18;100.00
5879;BME280;2965;42.640;23.370;2024-01-16T20:51:19;94472.56;;;-0.37;100.00
5879;BME280;2965;42.640;23.370;2024-01-16T20:53:45;94474.81;;;-0.66;100.00
5879;BME280;2965;42.640;23.370;2024-01-16T20:56:10;94480.50;;;-0.62;100.00
5879;BME280;2965;42.640;23.370;2024-01-16T20:58:36;94473.50;;;-0.49;100.00
5879;BME280;2965;42.640;23.370;2024-01-16T21:01:03;94486.19;;;-1.50;100.00
5879;BME280;2965;42.640;23.370;2024-01-16T21:03:29;94480.16;;;-1.38;100.00
5879;BME280;2965;42.640;23.370;2024-01-16T21:05:55;94487.34;;;-1.08;100.00
5879;BME280;2965;42.640;23.370;2024-01-16T21:08:21;94488.78;;;-0.92;100.00
5879;BME280;2965;42.640;23.370;2024-01-16T21:10:47;94486.63;;;-1.21;100.00
5879;BME280;2965;42.640;23.370;2024-01-16T21:13:13;94497.19;;;-1.72;100.00
5879;BME280;2965;42.640;23.370;2024-01-16T21:15:40;94498.97;;;-1.61;100.00
5879;BME280;2965;42.640;23.370;2024-01-16T21:18:06;94515.13;;;-1.48;100.00
5879;BME280;2965;42.640;23.370;2024-01-16T21:20:32;94527.00;;;-1.47;100.00
5879;BME280;2965;42.640;23.370;2024-01-16T21:22:57;94522.53;;;-1.56;100.00
5879;BME280;2965;42.640;23.370;2024-01-16T21:25:24;94515.44;;;-1.53;100.00
5879;BME280;2965;42.640;23.370;2024-01-16T21:27:49;94526.91;;;-1.69;100.00
5879;BME280;2965;42.640;23.370;2024-01-16T21:30:15;94522.22;;;-1.52;100.00
5879;BME280;2965;42.640;23.370;2024-01-16T21:32:41;94529.84;;;-1.39;100.00
5879;BME280;2965;42.640;23.370;2024-01-16T21:35:07;94529.38;;;-1.44;100.00
5879;BME280;2965;42.640;23.370;2024-01-16T21:37:35;94527.47;;;-1.53;100.00
5879;BME280;2965;42.640;23.370;2024-01-16T21:40:01;94540.97;;;-1.51;100.00
5879;BME280;2965;42.640;23.370;2024-01-16T21:42:26;94539.34;;;-1.28;100.00
5879;BME280;2965;42.640;23.370;2024-01-16T21:44:51;94542.28;;;-1.21;100.00
5879;BME280;2965;42.640;23.370;2024-01-16T21:47:18;94538.09;;;-1.22;100.00
5879;BME280;2965;42.640;23.370;2024-01-16T21:49:49;94531.13;;;-1.09;100.00
5879;BME280;2965;42.640;23.370;2024-01-16T21:52:14;94527.16;;;-1.02;100.00
5879;BME280;2965;42.640;23.370;2024-01-16T21:54:40;94539.78;;;-0.99;100.00
5879;BME280;2965;42.640;23.370;2024-01-16T21:57:06;94523.75;;;-1.14;100.00
5879;BME280;2965;42.640;23.370;2024-01-16T21:59:32;94524.59;;;-1.02;100.00
5879;BME280;2965;42.640;23.370;2024-01-16T22:01:57;94516.88;;;-1.02;100.00
5879;BME280;2965;42.640;23.370;2024-01-16T22:04:24;94519.00;;;-0.96;100.00
5879;BME280;2965;42.640;23.370;2024-01-16T22:06:49;94523.22;;;-0.95;100.00
5879;BME280;2965;42.640;23.370;2024-01-16T22:09:15;94517.59;;;-0.89;100.00
5879;BME280;2965;42.640;23.370;2024-01-16T22:11:46;94501.72;;;-1.05;100.00
5879;BME280;2965;42.640;23.370;2024-01-16T22:14:11;94493.75;;;-1.13;100.00
5879;BME280;2965;42.640;23.370;2024-01-16T22:16:37;94493.97;;;-1.16;100.00
5879;BME280;2965;42.640;23.370;2024-01-16T22:19:02;94481.59;;;-1.22;100.00
5879;BME280;2965;42.640;23.370;2024-01-16T22:21:28;94485.13;;;-1.12;100.00
5879;BME280;2965;42.640;23.370;2024-01-16T22:23:54;94466.56;;;-1.16;100.00
5879;BME280;2965;42.640;23.370;2024-01-16T22:26:19;94474.91;;;-1.36;100.00
5879;BME280;2965;42.640;23.370;2024-01-16T22:28:46;94465.47;;;-1.36;100.00
5879;BME280;2965;42.640;23.370;2024-01-16T22:31:11;94466.41;;;-1.37;100.00
5879;BME280;2965;42.640;23.370;2024-01-16T22:33:37;94467.16;;;-1.23;100.00
5879;BME280;2965;42.640;23.370;2024-01-16T22:36:03;94476.00;;;-1.28;100.00
5879;BME280;2965;42.640;23.370;2024-01-16T22:38:29;94476.09;;;-1.64;100.00
5879;BME280;2965;42.640;23.370;2024-01-16T22:40:57;94486.41;;;-2.01;100.00
5879;BME280;2965;42.640;23.370;2024-01-16T22:43:23;94469.44;;;-1.91;100.00
5879;BME280;2965;42.640;23.370;2024-01-16T22:45:48;94479.59;;;-1.89;100.00
5879;BME280;2965;42.640;23.370;2024-01-16T22:48:15;94470.50;;;-1.93;100.00
5879;BME280;2965;42.640;23.370;2024-01-16T22:50:41;94465.19;;;-1.79;100.00
5879;BME280;2965;42.640;23.370;2024-01-16T22:53:07;94456.69;;;-1.80;100.00
5879;BME280;2965;42.640;23.370;2024-01-16T22:55:33;94453.72;;;-1.86;100.00
5879;BME280;2965;42.640;23.370;2024-01-16T22:58:00;94454.72;;;-1.76;100.00
5879;BME280;2965;42.640;23.370;2024-01-16T23:00:27;94454.88;;;-1.66;100.00
5879;BME280;2965;42.640;23.370;2024-01-16T23:02:55;94453.00;;;-1.64;100.00
5879;BME280;2965;42.640;23.370;2024-01-16T23:05:21;94453.72;;;-1.62;100.00
5879;BME280;2965;42.640;23.370;2024-01-16T23:07:49;94457.03;;;-1.49;100.00
5879;BME280;2965;42.640;23.370;2024-01-16T23:10:15;94444.94;;;-1.36;100.00
5879;BME280;2965;42.640;23.370;2024-01-16T23:12:42;94460.75;;;-1.53;100.00
5879;BME280;2965;42.640;23.370;2024-01-16T23:15:11;94448.88;;;-1.43;100.00
5879;BME280;2965;42.640;23.370;2024-01-16T23:17:37;94461.94;;;-1.46;100.00
5879;BME280;2965;42.640;23.370;2024-01-16T23:20:09;94445.91;;;-1.61;100.00
5879;BME280;2965;42.640;23.370;2024-01-16T23:22:42;94456.56;;;-1.43;100.00
5879;BME280;2965;42.640;23.370;2024-01-16T23:25:09;94451.91;;;-1.49;100.00
5879;BME280;2965;42.640;23.370;2024-01-16T23:27:38;94458.19;;;-1.42;100.00
5879;BME280;2965;42.640;23.370;2024-01-16T23:30:05;94454.72;;;-1.41;100.00
5879;BME280;2965;42.640;23.370;2024-01-16T23:32:31;94451.97;;;-1.27;100.00
5879;BME280;2965;42.640;23.370;2024-01-16T23:34:57;94457.78;;;-1.24;100.00
5879;BME280;2965;42.640;23.370;2024-01-16T23:37:26;94449.38;;;-1.27;100.00
5879;BME280;2965;42.640;23.370;2024-01-16T23:39:53;94461.50;;;-1.29;100.00
5879;BME280;2965;42.640;23.370;2024-01-16T23:42:19;94465.13;;;-1.31;100.00
5879;BME280;2965;42.640;23.370;2024-01-16T23:44:46;94462.91;;;-1.36;100.00
5879;BME280;2965;42.640;23.370;2024-01-16T23:47:13;94452.44;;;-1.33;100.00
5879;BME280;2965;42.640;23.370;2024-01-16T23:49:39;94450.75;;;-1.34;100.00
5879;BME280;2965;42.640;23.370;2024-01-16T23:52:06;94457.78;;;-1.36;100.00
5879;BME280;2965;42.640;23.370;2024-01-16T23:54:34;94445.72;;;-1.46;100.00
5879;BME280;2965;42.640;23.370;2024-01-16T23:56:59;94447.91;;;-1.53;100.00
5879;BME280;2965;42.640;23.370;2024-01-16T23:59:28;94441.63;;;-1.49;100.00
